sensor_id;sensor_type;location;lat;lon;timestamp;pressure;altitude;pressure_sealevel;temperature
19102;BMP280;9683;49.028;12.064;2022-08-21T00:01:33;97262.97;;;20.85
19102;BMP280;9683;49.028;12.064;2022-08-21T00:04:04;97268.66;;;20.83
19102;BMP280;9683;49.028;12.064;2022-08-21T00:06:31;97278.44;;;20.79
19102;BMP280;9683;49.028;12.064;2022-08-21T00:09:00;97267.63;;;20.79
19102;BMP280;9683;49.028;12.064;2022-08-21T00:11:27;97276.84;;;20.78
19102;BMP280;9683;49.028;12.064;2022-08-21T00:13:54;97272.75;;;20.81
19102;BMP280;9683;49.028;12.064;2022-08-21T00:16:21;97274.16;;;20.78
19102;BMP280;9683;49.028;12.064;2022-08-21T00:18:48;97267.94;;;20.78
19102;BMP280;9683;49.028;12.064;2022-08-21T00:21:15;97260.91;;;20.77
19102;BMP280;9683;49.028;12.064;2022-08-21T00:23:42;97264.19;;;20.74
19102;BMP280;9683;49.028;12.064;2022-08-21T00:26:10;97258.78;;;20.74
19102;BMP280;9683;49.028;12.064;2022-08-21T00:28:37;97264.75;;;20.71
19102;BMP280;9683;49.028;12.064;2022-08-21T00:31:04;97256.13;;;20.69
19102;BMP280;9683;49.028;12.064;2022-08-21T00:33:31;97252.59;;;20.68
19102;BMP280;9683;49.028;12.064;2022-08-21T00:35:59;97253.47;;;20.64
19102;BMP280;9683;49.028;12.064;2022-08-21T00:38:25;97254.84;;;20.61
19102;BMP280;9683;49.028;12.064;2022-08-21T00:40:54;97254.03;;;20.61
19102;BMP280;9683;49.028;12.064;2022-08-21T00:43:25;97251.84;;;20.63
19102;BMP280;9683;49.028;12.064;2022-08-21T00:45:53;97244.31;;;20.59
19102;BMP280;9683;49.028;12.064;2022-08-21T00:48:20;97245.16;;;20.55
19102;BMP280;9683;49.028;12.064;2022-08-21T00:50:50;97251.09;;;20.57
19102;BMP280;9683;49.028;12.064;2022-08-21T00:53:19;97243.00;;;20.57
19102;BMP280;9683;49.028;12.064;2022-08-21T00:55:46;97248.91;;;20.59
19102;BMP280;9683;49.028;12.064;2022-08-21T00:58:14;97244.03;;;20.61
19102;BMP280;9683;49.028;12.064;2022-08-21T01:00:45;97243.72;;;20.63
19102;BMP280;9683;49.028;12.064;2022-08-21T01:03:14;97246.44;;;20.63
19102;BMP280;9683;49.028;12.064;2022-08-21T01:05:42;97244.84;;;20.62
19102;BMP280;9683;49.028;12.064;2022-08-21T01:08:10;97248.69;;;20.55
19102;BMP280;9683;49.028;12.064;2022-08-21T01:10:37;97238.44;;;20.52
19102;BMP280;9683;49.028;12.064;2022-08-21T01:13:05;97239.81;;;20.50
19102;BMP280;9683;49.028;12.064;2022-08-21T01:15:35;97240.91;;;20.49
19102;BMP280;9683;49.028;12.064;2022-08-21T01:18:05;97244.44;;;20.49
19102;BMP280;9683;49.028;12.064;2022-08-21T01:20:32;97238.22;;;20.49
19102;BMP280;9683;49.028;12.064;2022-08-21T01:23:00;97236.06;;;20.46
19102;BMP280;9683;49.028;12.064;2022-08-21T01:25:27;97235.31;;;20.40
19102;BMP280;9683;49.028;12.064;2022-08-21T01:27:54;97236.41;;;20.39
19102;BMP280;9683;49.028;12.064;2022-08-21T01:30:24;97231.81;;;20.40
19102;BMP280;9683;49.028;12.064;2022-08-21T01:32:52;97235.88;;;20.37
19102;BMP280;9683;49.028;12.064;2022-08-21T01:35:20;97229.16;;;20.35
19102;BMP280;9683;49.028;12.064;2022-08-21T01:37:47;97237.50;;;20.38
19102;BMP280;9683;49.028;12.064;2022-08-21T01:40:16;97231.84;;;20.35
19102;BMP280;9683;49.028;12.064;2022-08-21T01:42:45;97235.66;;;20.34
19102;BMP280;9683;49.028;12.064;2022-08-21T01:45:13;97238.34;;;20.34
19102;BMP280;9683;49.028;12.064;2022-08-21T01:47:40;97235.94;;;20.32
19102;BMP280;9683;49.028;12.064;2022-08-21T01:50:12;97242.72;;;20.30
19102;BMP280;9683;49.028;12.064;2022-08-21T01:52:40;97241.66;;;20.26
19102;BMP280;9683;49.028;12.064;2022-08-21T01:55:08;97241.94;;;20.24
19102;BMP280;9683;49.028;12.064;2022-08-21T01:57:37;97239.25;;;20.24
19102;BMP280;9683;49.028;12.064;2022-08-21T02:00:05;97242.72;;;20.25
19102;BMP280;9683;49.028;12.064;2022-08-21T02:02:33;97241.69;;;20.21
19102;BMP280;9683;49.028;12.064;2022-08-21T02:05:00;97232.53;;;20.17
19102;BMP280;9683;49.028;12.064;2022-08-21T02:07:26;97231.56;;;20.07
19102;BMP280;9683;49.028;12.064;2022-08-21T02:09:53;97233.78;;;20.00
19102;BMP280;9683;49.028;12.064;2022-08-21T02:12:19;97230.34;;;19.90
19102;BMP280;9683;49.028;12.064;2022-08-21T02:14:47;97227.34;;;19.91
19102;BMP280;9683;49.028;12.064;2022-08-21T02:17:14;97228.19;;;19.87
19102;BMP280;9683;49.028;12.064;2022-08-21T02:19:41;97222.81;;;19.87
19102;BMP280;9683;49.028;12.064;2022-08-21T02:22:08;97219.34;;;19.81
19102;BMP280;9683;49.028;12.064;2022-08-21T02:24:35;97221.53;;;19.79
19102;BMP280;9683;49.028;12.064;2022-08-21T02:27:02;97219.38;;;19.76
19102;BMP280;9683;49.028;12.064;2022-08-21T02:29:28;97224.53;;;19.78
19102;BMP280;9683;49.028;12.064;2022-08-21T02:31:56;97229.06;;;19.82
19102;BMP280;9683;49.028;12.064;2022-08-21T02:34:24;97233.38;;;19.83
19102;BMP280;9683;49.028;12.064;2022-08-21T02:36:50;97219.34;;;19.81
19102;BMP280;9683;49.028;12.064;2022-08-21T02:39:17;97226.91;;;19.79
19102;BMP280;9683;49.028;12.064;2022-08-21T02:41:44;97227.22;;;19.78
19102;BMP280;9683;49.028;12.064;2022-08-21T02:44:11;97227.22;;;19.78
19102;BMP280;9683;49.028;12.064;2022-08-21T02:46:37;97227.72;;;19.80
19102;BMP280;9683;49.028;12.064;2022-08-21T02:49:05;97226.88;;;19.84
19102;BMP280;9683;49.028;12.064;2022-08-21T02:51:32;97229.59;;;19.84
19102;BMP280;9683;49.028;12.064;2022-08-21T02:53:58;97225.00;;;19.85
19102;BMP280;9683;49.028;12.064;2022-08-21T02:56:25;97225.03;;;19.80
19102;BMP280;9683;49.028;12.064;2022-08-21T02:58:52;97225.63;;;19.72
19102;BMP280;9683;49.028;12.064;2022-08-21T03:01:18;97222.97;;;19.66
19102;BMP280;9683;49.028;12.064;2022-08-21T03:03:46;97217.31;;;19.63
19102;BMP280;9683;49.028;12.064;2022-08-21T03:06:18;97216.81;;;19.61
19102;BMP280;9683;49.028;12.064;2022-08-21T03:08:45;97219.53;;;19.56
19102;BMP280;9683;49.028;12.064;2022-08-21T03:11:12;97227.91;;;19.54
19102;BMP280;9683;49.028;12.064;2022-08-21T03:13:40;97224.41;;;19.54
19102;BMP280;9683;49.028;12.064;2022-08-21T03:16:06;97228.75;;;19.50
19102;BMP280;9683;49.028;12.064;2022-08-21T03:18:33;97227.47;;;19.32
19102;BMP280;9683;49.028;12.064;2022-08-21T03:21:00;97226.19;;;19.24
19102;BMP280;9683;49.028;12.064;2022-08-21T03:23:28;97229.97;;;19.23
19102;BMP280;9683;49.028;12.064;2022-08-21T03:25:56;97223.78;;;19.23
19102;BMP280;9683;49.028;12.064;2022-08-21T03:28:23;97234.63;;;19.13
19102;BMP280;9683;49.028;12.064;2022-08-21T03:30:50;97229.53;;;19.06
19102;BMP280;9683;49.028;12.064;2022-08-21T03:33:18;97229.28;;;19.03
19102;BMP280;9683;49.028;12.064;2022-08-21T03:35:47;97233.06;;;19.02
19102;BMP280;9683;49.028;12.064;2022-08-21T03:38:15;97227.94;;;19.00
19102;BMP280;9683;49.028;12.064;2022-08-21T03:40:44;97234.16;;;19.01
19102;BMP280;9683;49.028;12.064;2022-08-21T03:43:10;97234.97;;;19.01
19102;BMP280;9683;49.028;12.064;2022-08-21T03:45:38;97234.13;;;19.06
19102;BMP280;9683;49.028;12.064;2022-08-21T03:48:06;97236.50;;;19.12
19102;BMP280;9683;49.028;12.064;2022-08-21T03:50:35;97234.88;;;19.16
19102;BMP280;9683;49.028;12.064;2022-08-21T03:53:02;97232.16;;;19.16
19102;BMP280;9683;49.028;12.064;2022-08-21T03:55:29;97234.28;;;19.24
19102;BMP280;9683;49.028;12.064;2022-08-21T03:57:58;97231.56;;;19.30
19102;BMP280;9683;49.028;12.064;2022-08-21T04:00:25;97241.53;;;19.29
19102;BMP280;9683;49.028;12.064;2022-08-21T04:02:51;97238.28;;;19.32
19102;BMP280;9683;49.028;12.064;2022-08-21T04:05:19;97250.94;;;19.37
19102;BMP280;9683;49.028;12.064;2022-08-21T04:07:54;97250.94;;;19.37
19102;BMP280;9683;49.028;12.064;2022-08-21T04:10:22;97251.50;;;19.39
19102;BMP280;9683;49.028;12.064;2022-08-21T04:12:49;97253.38;;;19.43
19102;BMP280;9683;49.028;12.064;2022-08-21T04:15:17;97247.16;;;19.38
19102;BMP280;9683;49.028;12.064;2022-08-21T04:17:45;97247.19;;;19.33
19102;BMP280;9683;49.028;12.064;2022-08-21T04:20:11;97251.50;;;19.34
19102;BMP280;9683;49.028;12.064;2022-08-21T04:22:38;97240.97;;;19.32
19102;BMP280;9683;49.028;12.064;2022-08-21T04:25:06;97250.44;;;19.35
19102;BMP280;9683;49.028;12.064;2022-08-21T04:27:33;97247.44;;;19.36
19102;BMP280;9683;49.028;12.064;2022-08-21T04:30:00;97253.66;;;19.37
19102;BMP280;9683;49.028;12.064;2022-08-21T04:32:28;97256.66;;;19.35
19102;BMP280;9683;49.028;12.064;2022-08-21T04:34:58;97258.00;;;19.33
19102;BMP280;9683;49.028;12.064;2022-08-21T04:37:26;97262.06;;;19.30
19102;BMP280;9683;49.028;12.064;2022-08-21T04:39:53;97267.72;;;19.29
19102;BMP280;9683;49.028;12.064;2022-08-21T04:42:21;97266.09;;;19.28
19102;BMP280;9683;49.028;12.064;2022-08-21T04:44:49;97270.19;;;19.25
19102;BMP280;9683;49.028;12.064;2022-08-21T04:47:15;97269.69;;;19.18
19102;BMP280;9683;49.028;12.064;2022-08-21T04:49:44;97268.06;;;19.17
19102;BMP280;9683;49.028;12.064;2022-08-21T04:52:11;97269.72;;;19.13
19102;BMP280;9683;49.028;12.064;2022-08-21T04:54:39;97281.56;;;19.12
19102;BMP280;9683;49.028;12.064;2022-08-21T04:57:09;97281.88;;;19.10
19102;BMP280;9683;49.028;12.064;2022-08-21T04:59:42;97281.34;;;18.98
19102;BMP280;9683;49.028;12.064;2022-08-21T05:02:09;97280.03;;;18.96
19102;BMP280;9683;49.028;12.064;2022-08-21T05:04:38;97285.72;;;18.89
19102;BMP280;9683;49.028;12.064;2022-08-21T05:07:11;97291.94;;;18.90
19102;BMP280;9683;49.028;12.064;2022-08-21T05:09:38;97284.38;;;18.87
19102;BMP280;9683;49.028;12.064;2022-08-21T05:12:05;97286.00;;;18.83
19102;BMP280;9683;49.028;12.064;2022-08-21T05:14:32;97285.75;;;18.84
19102;BMP280;9683;49.028;12.064;2022-08-21T05:16:59;97293.00;;;18.89
19102;BMP280;9683;49.028;12.064;2022-08-21T05:19:26;97289.19;;;18.95
19102;BMP280;9683;49.028;12.064;2022-08-21T05:21:53;97294.59;;;19.00
19102;BMP280;9683;49.028;12.064;2022-08-21T05:24:21;97287.56;;;19.04
19102;BMP280;9683;49.028;12.064;2022-08-21T05:26:48;97291.59;;;19.06
19102;BMP280;9683;49.028;12.064;2022-08-21T05:29:15;97296.44;;;19.14
19102;BMP280;9683;49.028;12.064;2022-08-21T05:31:42;97294.81;;;19.13
19102;BMP280;9683;49.028;12.064;2022-08-21T05:34:09;97292.66;;;19.10
19102;BMP280;9683;49.028;12.064;2022-08-21T05:36:36;97297.50;;;19.18
19102;BMP280;9683;49.028;12.064;2022-08-21T05:39:03;97297.75;;;19.22
19102;BMP280;9683;49.028;12.064;2022-08-21T05:41:31;97300.69;;;19.26
19102;BMP280;9683;49.028;12.064;2022-08-21T05:43:58;97314.19;;;19.26
19102;BMP280;9683;49.028;12.064;2022-08-21T05:46:24;97309.28;;;19.28
19102;BMP280;9683;49.028;12.064;2022-08-21T05:48:51;97308.78;;;19.20
19102;BMP280;9683;49.028;12.064;2022-08-21T05:51:18;97320.41;;;19.21
19102;BMP280;9683;49.028;12.064;2022-08-21T05:53:45;97315.81;;;19.27
19102;BMP280;9683;49.028;12.064;2022-08-21T05:56:12;97312.56;;;19.24
19102;BMP280;9683;49.028;12.064;2022-08-21T05:58:41;97309.88;;;19.19
19102;BMP280;9683;49.028;12.064;2022-08-21T06:01:08;97305.06;;;19.11
19102;BMP280;9683;49.028;12.064;2022-08-21T06:03:40;97313.47;;;19.05
19102;BMP280;9683;49.028;12.064;2022-08-21T06:06:07;97312.09;;;19.02
19102;BMP280;9683;49.028;12.064;2022-08-21T06:08:34;97309.41;;;19.02
19102;BMP280;9683;49.028;12.064;2022-08-21T06:11:02;97307.50;;;19.03
19102;BMP280;9683;49.028;12.064;2022-08-21T06:13:29;97305.88;;;19.07
19102;BMP280;9683;49.028;12.064;2022-08-21T06:16:07;97308.53;;;19.17
19102;BMP280;9683;49.028;12.064;2022-08-21T06:18:34;97312.88;;;19.18
19102;BMP280;9683;49.028;12.064;2022-08-21T06:21:02;97305.53;;;19.23
19102;BMP280;9683;49.028;12.064;2022-08-21T06:23:29;97314.97;;;19.31
19102;BMP280;9683;49.028;12.064;2022-08-21T06:25:56;97312.22;;;19.36
19102;BMP280;9683;49.028;12.064;2022-08-21T06:28:23;97317.09;;;19.39
19102;BMP280;9683;49.028;12.064;2022-08-21T06:30:49;97304.91;;;19.42
19102;BMP280;9683;49.028;12.064;2022-08-21T06:33:18;97315.72;;;19.47
19102;BMP280;9683;49.028;12.064;2022-08-21T06:35:45;97311.16;;;19.47
19102;BMP280;9683;49.028;12.064;2022-08-21T06:38:11;97318.41;;;19.52
19102;BMP280;9683;49.028;12.064;2022-08-21T06:40:39;97314.88;;;19.56
19102;BMP280;9683;49.028;12.064;2022-08-21T06:43:07;97314.81;;;19.61
19102;BMP280;9683;49.028;12.064;2022-08-21T06:45:35;97318.06;;;19.63
19102;BMP280;9683;49.028;12.064;2022-08-21T06:48:02;97306.94;;;19.70
19102;BMP280;9683;49.028;12.064;2022-08-21T06:50:30;97313.13;;;19.76
19102;BMP280;9683;49.028;12.064;2022-08-21T06:53:01;97305.81;;;19.81
19102;BMP280;9683;49.028;12.064;2022-08-21T06:55:28;97309.81;;;19.84
19102;BMP280;9683;49.028;12.064;2022-08-21T06:57:55;97309.81;;;19.89
19102;BMP280;9683;49.028;12.064;2022-08-21T07:00:22;97295.72;;;19.92
19102;BMP280;9683;49.028;12.064;2022-08-21T07:02:49;97299.25;;;19.87
19102;BMP280;9683;49.028;12.064;2022-08-21T07:05:16;97300.44;;;19.76
19102;BMP280;9683;49.028;12.064;2022-08-21T07:07:44;97302.28;;;19.81
19102;BMP280;9683;49.028;12.064;2022-08-21T07:10:11;97312.84;;;19.82
19102;BMP280;9683;49.028;12.064;2022-08-21T07:12:38;97317.13;;;19.83
19102;BMP280;9683;49.028;12.064;2022-08-21T07:15:05;97313.66;;;19.78
19102;BMP280;9683;49.028;12.064;2022-08-21T07:17:32;97315.00;;;19.75
19102;BMP280;9683;49.028;12.064;2022-08-21T07:19:59;97311.25;;;19.71
19102;BMP280;9683;49.028;12.064;2022-08-21T07:22:25;97315.81;;;19.76
19102;BMP280;9683;49.028;12.064;2022-08-21T07:24:55;97310.06;;;19.87
19102;BMP280;9683;49.028;12.064;2022-08-21T07:27:21;97312.75;;;19.92
19102;BMP280;9683;49.028;12.064;2022-08-21T07:29:48;97307.53;;;20.01
19102;BMP280;9683;49.028;12.064;2022-08-21T07:32:15;97311.78;;;20.12
19102;BMP280;9683;49.028;12.064;2022-08-21T07:34:42;97308.66;;;20.29
19102;BMP280;9683;49.028;12.064;2022-08-21T07:37:09;97304.03;;;20.39
19102;BMP280;9683;49.028;12.064;2022-08-21T07:39:36;97308.81;;;20.47
19102;BMP280;9683;49.028;12.064;2022-08-21T07:42:04;97308.19;;;20.55
19102;BMP280;9683;49.028;12.064;2022-08-21T07:44:31;97311.13;;;20.59
19102;BMP280;9683;49.028;12.064;2022-08-21T07:46:59;97307.34;;;20.60
19102;BMP280;9683;49.028;12.064;2022-08-21T07:49:26;97308.41;;;20.59
19102;BMP280;9683;49.028;12.064;2022-08-21T07:51:52;97299.75;;;20.62
19102;BMP280;9683;49.028;12.064;2022-08-21T07:54:20;97308.59;;;20.68
19102;BMP280;9683;49.028;12.064;2022-08-21T07:56:46;97308.28;;;20.74
19102;BMP280;9683;49.028;12.064;2022-08-21T07:59:14;97301.38;;;20.87
19102;BMP280;9683;49.028;12.064;2022-08-21T08:01:41;97304.00;;;20.92
19102;BMP280;9683;49.028;12.064;2022-08-21T08:04:08;97305.00;;;21.01
19102;BMP280;9683;49.028;12.064;2022-08-21T08:06:34;97314.09;;;21.10
19102;BMP280;9683;49.028;12.064;2022-08-21T08:09:01;97313.53;;;21.13
19102;BMP280;9683;49.028;12.064;2022-08-21T08:11:29;97309.75;;;21.14
19102;BMP280;9683;49.028;12.064;2022-08-21T08:13:55;97315.97;;;21.15
19102;BMP280;9683;49.028;12.064;2022-08-21T08:16:24;97317.81;;;21.19
19102;BMP280;9683;49.028;12.064;2022-08-21T08:18:51;97321.66;;;21.13
19102;BMP280;9683;49.028;12.064;2022-08-21T08:21:20;97321.13;;;21.11
19102;BMP280;9683;49.028;12.064;2022-08-21T08:23:46;97320.69;;;21.04
19102;BMP280;9683;49.028;12.064;2022-08-21T08:26:13;97320.56;;;20.90
19102;BMP280;9683;49.028;12.064;2022-08-21T08:28:41;97314.97;;;20.82
19102;BMP280;9683;49.028;12.064;2022-08-21T08:31:07;97316.81;;;20.86
19102;BMP280;9683;49.028;12.064;2022-08-21T08:33:35;97316.75;;;20.91
19102;BMP280;9683;49.028;12.064;2022-08-21T08:36:02;97317.22;;;20.98
19102;BMP280;9683;49.028;12.064;2022-08-21T08:38:29;97319.00;;;21.08
19102;BMP280;9683;49.028;12.064;2022-08-21T08:41:01;97309.84;;;21.28
19102;BMP280;9683;49.028;12.064;2022-08-21T08:43:28;97319.69;;;21.42
19102;BMP280;9683;49.028;12.064;2022-08-21T08:45:58;97322.03;;;21.49
19102;BMP280;9683;49.028;12.064;2022-08-21T08:48:43;97315.28;;;21.46
19102;BMP280;9683;49.028;12.064;2022-08-21T08:51:15;97321.88;;;21.40
19102;BMP280;9683;49.028;12.064;2022-08-21T08:53:49;97322.38;;;21.42
19102;BMP280;9683;49.028;12.064;2022-08-21T08:56:22;97322.78;;;21.55
19102;BMP280;9683;49.028;12.064;2022-08-21T08:58:51;97322.34;;;21.66
19102;BMP280;9683;49.028;12.064;2022-08-21T09:01:20;97320.28;;;21.77
19102;BMP280;9683;49.028;12.064;2022-08-21T09:03:49;97330.19;;;21.86
19102;BMP280;9683;49.028;12.064;2022-08-21T09:06:25;97330.09;;;21.97
19102;BMP280;9683;49.028;12.064;2022-08-21T09:09:02;97319.88;;;22.07
19102;BMP280;9683;49.028;12.064;2022-08-21T09:11:36;97327.56;;;22.19
19102;BMP280;9683;49.028;12.064;2022-08-21T09:14:15;97326.88;;;22.27
19102;BMP280;9683;49.028;12.064;2022-08-21T09:16:47;97323.59;;;22.30
19102;BMP280;9683;49.028;12.064;2022-08-21T09:19:28;97325.41;;;22.34
19102;BMP280;9683;49.028;12.064;2022-08-21T09:22:03;97319.59;;;22.41
19102;BMP280;9683;49.028;12.064;2022-08-21T09:24:38;97319.44;;;22.51
19102;BMP280;9683;49.028;12.064;2022-08-21T09:27:09;97317.41;;;22.57
19102;BMP280;9683;49.028;12.064;2022-08-21T09:29:39;97322.69;;;22.67
19102;BMP280;9683;49.028;12.064;2022-08-21T09:32:11;97320.13;;;22.75
19102;BMP280;9683;49.028;12.064;2022-08-21T09:34:42;97320.22;;;22.84
19102;BMP280;9683;49.028;12.064;2022-08-21T09:37:16;97320.81;;;22.95
19102;BMP280;9683;49.028;12.064;2022-08-21T09:39:43;97323.44;;;23.00
19102;BMP280;9683;49.028;12.064;2022-08-21T09:42:10;97316.03;;;23.05
19102;BMP280;9683;49.028;12.064;2022-08-21T09:44:40;97315.31;;;23.13
19102;BMP280;9683;49.028;12.064;2022-08-21T09:47:10;97321.66;;;23.22
19102;BMP280;9683;49.028;12.064;2022-08-21T09:49:40;97324.56;;;23.26
19102;BMP280;9683;49.028;12.064;2022-08-21T09:52:16;97319.94;;;23.26
19102;BMP280;9683;49.028;12.064;2022-08-21T09:54:45;97318.22;;;23.30
19102;BMP280;9683;49.028;12.064;2022-08-21T09:57:14;97319.13;;;23.40
19102;BMP280;9683;49.028;12.064;2022-08-21T10:00:08;97320.03;;;23.35
19102;BMP280;9683;49.028;12.064;2022-08-21T10:02:36;97316.09;;;23.27
19102;BMP280;9683;49.028;12.064;2022-08-21T10:05:09;97320.03;;;23.35
19102;BMP280;9683;49.028;12.064;2022-08-21T10:07:42;97315.28;;;23.41
19102;BMP280;9683;49.028;12.064;2022-08-21T10:10:15;97311.69;;;23.45
19102;BMP280;9683;49.028;12.064;2022-08-21T10:12:49;97311.69;;;23.45
19102;BMP280;9683;49.028;12.064;2022-08-21T10:15:20;97311.28;;;23.38
19102;BMP280;9683;49.028;12.064;2022-08-21T10:17:57;97307.84;;;23.33
19102;BMP280;9683;49.028;12.064;2022-08-21T10:20:34;97308.16;;;23.31
19102;BMP280;9683;49.028;12.064;2022-08-21T10:23:19;97308.38;;;23.35
19102;BMP280;9683;49.028;12.064;2022-08-21T10:25:51;97304.03;;;23.34
19102;BMP280;9683;49.028;12.064;2022-08-21T10:28:24;97304.66;;;23.30
19102;BMP280;9683;49.028;12.064;2022-08-21T10:30:58;97295.59;;;23.35
19102;BMP280;9683;49.028;12.064;2022-08-21T10:33:33;97299.78;;;23.41
19102;BMP280;9683;49.028;12.064;2022-08-21T10:36:10;97294.97;;;23.38
19102;BMP280;9683;49.028;12.064;2022-08-21T10:39:03;97288.84;;;23.19
19102;BMP280;9683;49.028;12.064;2022-08-21T10:41:46;97287.53;;;23.03
19102;BMP280;9683;49.028;12.064;2022-08-21T10:44:23;97295.47;;;22.99
19102;BMP280;9683;49.028;12.064;2022-08-21T10:46:55;97289.75;;;23.01
19102;BMP280;9683;49.028;12.064;2022-08-21T10:49:32;97291.16;;;22.98
19102;BMP280;9683;49.028;12.064;2022-08-21T10:52:24;97293.28;;;23.01
19102;BMP280;9683;49.028;12.064;2022-08-21T10:54:59;97288.63;;;23.15
19102;BMP280;9683;49.028;12.064;2022-08-21T10:57:34;97283.00;;;23.12
19102;BMP280;9683;49.028;12.064;2022-08-21T11:00:07;97283.63;;;23.09
19102;BMP280;9683;49.028;12.064;2022-08-21T11:02:39;97290.34;;;23.11
19102;BMP280;9683;49.028;12.064;2022-08-21T11:05:11;97293.25;;;23.15
19102;BMP280;9683;49.028;12.064;2022-08-21T11:07:45;97292.16;;;23.29
19102;BMP280;9683;49.028;12.064;2022-08-21T11:10:17;97287.91;;;23.37
19102;BMP280;9683;49.028;12.064;2022-08-21T11:12:49;97287.75;;;23.47
19102;BMP280;9683;49.028;12.064;2022-08-21T11:15:31;97287.31;;;23.54
19102;BMP280;9683;49.028;12.064;2022-08-21T11:18:04;97276.63;;;23.57
19102;BMP280;9683;49.028;12.064;2022-08-21T11:20:40;97272.00;;;23.58
19102;BMP280;9683;49.028;12.064;2022-08-21T11:23:14;97276.44;;;23.54
19102;BMP280;9683;49.028;12.064;2022-08-21T11:25:48;97274.22;;;23.42
19102;BMP280;9683;49.028;12.064;2022-08-21T11:28:22;97280.38;;;23.34
19102;BMP280;9683;49.028;12.064;2022-08-21T11:30:57;97268.41;;;23.35
19102;BMP280;9683;49.028;12.064;2022-08-21T11:33:37;97261.75;;;23.41
19102;BMP280;9683;49.028;12.064;2022-08-21T11:36:15;97259.34;;;23.40
19102;BMP280;9683;49.028;12.064;2022-08-21T11:38:46;97255.31;;;23.37
19102;BMP280;9683;49.028;12.064;2022-08-21T11:41:24;97254.94;;;23.30
19102;BMP280;9683;49.028;12.064;2022-08-21T11:44:00;97250.19;;;23.36
19102;BMP280;9683;49.028;12.064;2022-08-21T11:46:33;97250.97;;;23.50
19102;BMP280;9683;49.028;12.064;2022-08-21T11:49:12;97246.38;;;23.72
19102;BMP280;9683;49.028;12.064;2022-08-21T11:51:46;97246.28;;;23.78
19102;BMP280;9683;49.028;12.064;2022-08-21T11:54:19;97246.56;;;23.76
19102;BMP280;9683;49.028;12.064;2022-08-21T11:56:51;97238.13;;;23.78
19102;BMP280;9683;49.028;12.064;2022-08-21T11:59:23;97240.50;;;23.79
19102;BMP280;9683;49.028;12.064;2022-08-21T12:01:52;97239.22;;;23.77
19102;BMP280;9683;49.028;12.064;2022-08-21T12:04:24;97235.13;;;23.88
19102;BMP280;9683;49.028;12.064;2022-08-21T12:06:51;97233.00;;;23.98
19102;BMP280;9683;49.028;12.064;2022-08-21T12:09:38;97232.59;;;24.13
19102;BMP280;9683;49.028;12.064;2022-08-21T12:12:11;97237.22;;;24.13
19102;BMP280;9683;49.028;12.064;2022-08-21T12:14:41;97229.69;;;24.10
19102;BMP280;9683;49.028;12.064;2022-08-21T12:17:16;97232.72;;;24.08
19102;BMP280;9683;49.028;12.064;2022-08-21T12:19:43;97233.91;;;24.16
19102;BMP280;9683;49.028;12.064;2022-08-21T12:22:12;97230.09;;;24.17
19102;BMP280;9683;49.028;12.064;2022-08-21T12:24:41;97226.13;;;24.23
19102;BMP280;9683;49.028;12.064;2022-08-21T12:27:23;97218.31;;;24.30
19102;BMP280;9683;49.028;12.064;2022-08-21T12:29:53;97211.00;;;24.39
19102;BMP280;9683;49.028;12.064;2022-08-21T12:32:25;97210.25;;;24.47
19102;BMP280;9683;49.028;12.064;2022-08-21T12:34:55;97211.22;;;24.51
19102;BMP280;9683;49.028;12.064;2022-08-21T12:37:28;97208.53;;;24.60
19102;BMP280;9683;49.028;12.064;2022-08-21T12:39:58;97211.28;;;24.69
19102;BMP280;9683;49.028;12.064;2022-08-21T12:42:34;97208.09;;;24.75
19102;BMP280;9683;49.028;12.064;2022-08-21T12:45:09;97203.47;;;24.84
19102;BMP280;9683;49.028;12.064;2022-08-21T12:47:45;97197.22;;;24.84
19102;BMP280;9683;49.028;12.064;2022-08-21T12:50:17;97201.94;;;24.92
19102;BMP280;9683;49.028;12.064;2022-08-21T12:52:51;97198.41;;;24.91
19102;BMP280;9683;49.028;12.064;2022-08-21T12:55:26;97200.03;;;25.09
19102;BMP280;9683;49.028;12.064;2022-08-21T12:57:55;97192.84;;;25.22
19102;BMP280;9683;49.028;12.064;2022-08-21T13:00:24;97187.41;;;25.22
19102;BMP280;9683;49.028;12.064;2022-08-21T13:02:52;97177.16;;;25.28
19102;BMP280;9683;49.028;12.064;2022-08-21T13:05:28;97185.34;;;25.28
19102;BMP280;9683;49.028;12.064;2022-08-21T13:07:55;97182.63;;;25.36
19102;BMP280;9683;49.028;12.064;2022-08-21T13:10:24;97176.66;;;25.43
19102;BMP280;9683;49.028;12.064;2022-08-21T13:12:55;97178.28;;;25.44
19102;BMP280;9683;49.028;12.064;2022-08-21T13:15:25;97168.66;;;25.46
19102;BMP280;9683;49.028;12.064;2022-08-21T13:17:53;97175.44;;;25.58
19102;BMP280;9683;49.028;12.064;2022-08-21T13:20:23;97167.41;;;25.61
19102;BMP280;9683;49.028;12.064;2022-08-21T13:22:51;97168.34;;;25.65
19102;BMP280;9683;49.028;12.064;2022-08-21T13:25:19;97165.94;;;25.64
19102;BMP280;9683;49.028;12.064;2022-08-21T13:27:59;97160.66;;;25.76
19102;BMP280;9683;49.028;12.064;2022-08-21T13:30:26;97161.63;;;25.71
19102;BMP280;9683;49.028;12.064;2022-08-21T13:32:57;97155.50;;;25.83
19102;BMP280;9683;49.028;12.064;2022-08-21T13:35:28;97152.44;;;25.84
19102;BMP280;9683;49.028;12.064;2022-08-21T13:37:57;97146.66;;;25.94
19102;BMP280;9683;49.028;12.064;2022-08-21T13:40:27;97146.44;;;26.08
19102;BMP280;9683;49.028;12.064;2022-08-21T13:42:54;97138.69;;;26.27
19102;BMP280;9683;49.028;12.064;2022-08-21T13:45:26;97127.69;;;26.44
19102;BMP280;9683;49.028;12.064;2022-08-21T13:47:54;97128.88;;;26.64
19102;BMP280;9683;49.028;12.064;2022-08-21T13:50:23;97137.25;;;26.68
19102;BMP280;9683;49.028;12.064;2022-08-21T13:52:57;97135.50;;;26.63
19102;BMP280;9683;49.028;12.064;2022-08-21T13:55:25;97139.66;;;26.61
19102;BMP280;9683;49.028;12.064;2022-08-21T13:58:00;97140.19;;;26.54
19102;BMP280;9683;49.028;12.064;2022-08-21T14:00:30;97138.72;;;26.57
19102;BMP280;9683;49.028;12.064;2022-08-21T14:03:03;97131.81;;;26.59
19102;BMP280;9683;49.028;12.064;2022-08-21T14:05:33;97132.13;;;26.58
19102;BMP280;9683;49.028;12.064;2022-08-21T14:08:04;97136.78;;;26.57
19102;BMP280;9683;49.028;12.064;2022-08-21T14:10:35;97134.97;;;26.70
19102;BMP280;9683;49.028;12.064;2022-08-21T14:13:04;97135.84;;;26.91
19102;BMP280;9683;49.028;12.064;2022-08-21T14:15:34;97134.84;;;26.96
19102;BMP280;9683;49.028;12.064;2022-08-21T14:18:08;97131.97;;;26.92
19102;BMP280;9683;49.028;12.064;2022-08-21T14:20:36;97128.50;;;27.04
19102;BMP280;9683;49.028;12.064;2022-08-21T14:23:03;97120.38;;;27.16